sensor_id;sensor_type;location;lat;lon;timestamp;P1;durP1;ratioP1;P2;durP2;ratioP2
17177;SDS011;8704;52.006;4.374;2024-03-02T18:04:07;7.57;;;2.40;;
17177;SDS011;8704;52.006;4.374;2024-03-02T18:06:36;4.72;;;2.30;;
17177;SDS011;8704;52.006;4.374;2024-03-02T18:09:04;5.68;;;2.00;;
17177;SDS011;8704;52.006;4.374;2024-03-02T18:11:33;4.88;;;2.40;;
17177;SDS011;8704;52.006;4.374;2024-03-02T18:14:01;4.78;;;2.33;;
17177;SDS011;8704;52.006;4.374;2024-03-02T18:16:30;6.57;;;2.65;;
17177;SDS011;8704;52.006;4.374;2024-03-02T18:18:59;5.80;;;2.40;;
17177;SDS011;8704;52.006;4.374;2024-03-02T18:21:33;4.20;;;2.17;;
17177;SDS011;8704;52.006;4.374;2024-03-02T18:24:01;4.60;;;3.17;;
17177;SDS011;8704;52.006;4.374;2024-03-02T18:26:30;4.93;;;2.60;;
17177;SDS011;8704;52.006;4.374;2024-03-02T18:28:59;5.70;;;2.55;;
17177;SDS011;8704;52.006;4.374;2024-03-02T18:31:27;4.20;;;2.72;;
17177;SDS011;8704;52.006;4.374;2024-03-02T18:33:56;5.00;;;2.70;;
17177;SDS011;8704;52.006;4.374;2024-03-02T18:36:24;4.55;;;2.30;;
17177;SDS011;8704;52.006;4.374;2024-03-02T18:38:54;5.00;;;2.03;;
17177;SDS011;8704;52.006;4.374;2024-03-02T18:41:22;4.20;;;2.03;;
17177;SDS011;8704;52.006;4.374;2024-03-02T18:43:51;6.82;;;2.13;;
17177;SDS011;8704;52.006;4.374;2024-03-02T18:46:19;4.90;;;2.15;;
17177;SDS011;8704;52.006;4.374;2024-03-02T18:48:47;4.20;;;1.63;;
17177;SDS011;8704;52.006;4.374;2024-03-02T18:51:19;4.30;;;2.05;;
17177;SDS011;8704;52.006;4.374;2024-03-02T18:53:49;5.15;;;2.60;;
17177;SDS011;8704;52.006;4.374;2024-03-02T18:56:18;4.65;;;2.38;;
17177;SDS011;8704;52.006;4.374;2024-03-02T18:58:47;4.60;;;2.08;;
17177;SDS011;8704;52.006;4.374;2024-03-02T19:01:15;5.25;;;1.98;;
17177;SDS011;8704;52.006;4.374;2024-03-02T19:03:45;3.63;;;1.83;;
17177;SDS011;8704;52.006;4.374;2024-03-02T19:06:13;4.35;;;2.10;;
17177;SDS011;8704;52.006;4.374;2024-03-02T19:08:42;4.53;;;2.00;;
17177;SDS011;8704;52.006;4.374;2024-03-02T19:11:13;4.03;;;2.10;;
17177;SDS011;8704;52.006;4.374;2024-03-02T19:13:43;5.63;;;2.17;;
17177;SDS011;8704;52.006;4.374;2024-03-02T19:16:11;3.40;;;2.20;;
17177;SDS011;8704;52.006;4.374;2024-03-02T19:18:40;4.82;;;2.20;;
17177;SDS011;8704;52.006;4.374;2024-03-02T19:21:09;3.72;;;1.65;;
17177;SDS011;8704;52.006;4.374;2024-03-02T19:23:37;4.43;;;2.03;;
17177;SDS011;8704;52.006;4.374;2024-03-02T19:26:11;4.53;;;1.70;;
17177;SDS011;8704;52.006;4.374;2024-03-02T19:28:46;3.17;;;1.65;;
17177;SDS011;8704;52.006;4.374;2024-03-02T19:31:15;4.22;;;1.90;;
17177;SDS011;8704;52.006;4.374;2024-03-02T19:33:43;3.35;;;1.95;;
17177;SDS011;8704;52.006;4.374;2024-03-02T19:36:12;3.47;;;1.98;;
17177;SDS011;8704;52.006;4.374;2024-03-02T19:38:40;3.58;;;2.03;;
17177;SDS011;8704;52.006;4.374;2024-03-02T19:41:09;3.65;;;1.90;;
17177;SDS011;8704;52.006;4.374;2024-03-02T19:43:37;2.75;;;1.77;;
17177;SDS011;8704;52.006;4.374;2024-03-02T19:46:07;3.40;;;1.80;;
17177;SDS011;8704;52.006;4.374;2024-03-02T19:48:36;3.67;;;2.00;;
17177;SDS011;8704;52.006;4.374;2024-03-02T19:51:04;4.45;;;2.10;;
17177;SDS011;8704;52.006;4.374;2024-03-02T19:53:32;3.42;;;1.90;;
17177;SDS011;8704;52.006;4.374;2024-03-02T19:56:01;3.53;;;2.00;;
17177;SDS011;8704;52.006;4.374;2024-03-02T19:58:29;4.55;;;2.00;;
17177;SDS011;8704;52.006;4.374;2024-03-02T20:00:58;3.35;;;2.00;;
17177;SDS011;8704;52.006;4.374;2024-03-02T20:03:28;3.78;;;1.83;;
17177;SDS011;8704;52.006;4.374;2024-03-02T20:05:56;3.38;;;1.90;;
17177;SDS011;8704;52.006;4.374;2024-03-02T20:08:25;3.42;;;2.05;;
17177;SDS011;8704;52.006;4.374;2024-03-02T20:10:53;4.03;;;2.13;;
17177;SDS011;8704;52.006;4.374;2024-03-02T20:13:21;4.45;;;2.30;;
17177;SDS011;8704;52.006;4.374;2024-03-02T20:15:50;4.80;;;2.20;;
17177;SDS011;8704;52.006;4.374;2024-03-02T20:18:18;3.65;;;2.08;;
17177;SDS011;8704;52.006;4.374;2024-03-02T20:20:48;5.25;;;2.55;;
17177;SDS011;8704;52.006;4.374;2024-03-02T20:23:16;4.95;;;2.30;;
17177;SDS011;8704;52.006;4.374;2024-03-02T20:25:44;4.43;;;2.35;;
17177;SDS011;8704;52.006;4.374;2024-03-02T20:28:13;4.47;;;2.30;;
17177;SDS011;8704;52.006;4.374;2024-03-02T20:30:43;3.70;;;2.10;;
17177;SDS011;8704;52.006;4.374;2024-03-02T20:33:11;4.07;;;2.28;;
17177;SDS011;8704;52.006;4.374;2024-03-02T20:35:40;4.82;;;2.38;;
17177;SDS011;8704;52.006;4.374;2024-03-02T20:38:09;4.75;;;2.40;;
17177;SDS011;8704;52.006;4.374;2024-03-02T20:40:38;4.57;;;2.50;;
17177;SDS011;8704;52.006;4.374;2024-03-02T20:43:08;4.65;;;2.40;;
17177;SDS011;8704;52.006;4.374;2024-03-02T20:45:37;5.10;;;2.75;;
17177;SDS011;8704;52.006;4.374;2024-03-02T20:48:06;4.68;;;2.80;;
17177;SDS011;8704;52.006;4.374;2024-03-02T20:50:35;3.97;;;2.40;;
17177;SDS011;8704;52.006;4.374;2024-03-02T20:53:04;4.75;;;2.50;;
17177;SDS011;8704;52.006;4.374;2024-03-02T20:55:35;4.30;;;2.67;;
17177;SDS011;8704;52.006;4.374;2024-03-02T20:58:04;6.80;;;2.60;;
17177;SDS011;8704;52.006;4.374;2024-03-02T21:00:32;3.72;;;2.63;;
17177;SDS011;8704;52.006;4.374;2024-03-02T21:03:04;5.07;;;2.60;;
17177;SDS011;8704;52.006;4.374;2024-03-02T21:05:32;5.22;;;2.63;;
17177;SDS011;8704;52.006;4.374;2024-03-02T21:08:01;7.18;;;2.38;;
17177;SDS011;8704;52.006;4.374;2024-03-02T21:10:29;4.07;;;2.70;;
17177;SDS011;8704;52.006;4.374;2024-03-02T21:12:59;4.97;;;2.20;;
17177;SDS011;8704;52.006;4.374;2024-03-02T21:15:27;5.32;;;2.50;;
17177;SDS011;8704;52.006;4.374;2024-03-02T21:17:56;4.57;;;2.58;;
17177;SDS011;8704;52.006;4.374;2024-03-02T21:20:27;4.60;;;2.90;;
17177;SDS011;8704;52.006;4.374;2024-03-02T21:22:55;3.97;;;2.33;;
17177;SDS011;8704;52.006;4.374;2024-03-02T21:25:24;3.25;;;2.33;;
17177;SDS011;8704;52.006;4.374;2024-03-02T21:27:53;4.30;;;2.30;;
17177;SDS011;8704;52.006;4.374;2024-03-02T21:30:23;4.00;;;2.38;;
17177;SDS011;8704;52.006;4.374;2024-03-02T21:32:56;6.05;;;2.60;;
17177;SDS011;8704;52.006;4.374;2024-03-02T21:35:25;4.57;;;2.72;;
17177;SDS011;8704;52.006;4.374;2024-03-02T21:37:57;4.60;;;2.58;;
17177;SDS011;8704;52.006;4.374;2024-03-02T21:40:26;4.28;;;2.60;;
17177;SDS011;8704;52.006;4.374;2024-03-02T21:42:54;3.55;;;2.30;;
17177;SDS011;8704;52.006;4.374;2024-03-02T21:45:24;4.82;;;2.33;;
17177;SDS011;8704;52.006;4.374;2024-03-02T21:47:53;4.78;;;2.47;;
17177;SDS011;8704;52.006;4.374;2024-03-02T21:50:21;3.95;;;2.33;;
17177;SDS011;8704;52.006;4.374;2024-03-02T21:55:24;4.30;;;2.55;;
17177;SDS011;8704;52.006;4.374;2024-03-02T21:57:53;3.25;;;2.20;;
17177;SDS011;8704;52.006;4.374;2024-03-02T22:00:21;4.70;;;2.28;;
17177;SDS011;8704;52.006;4.374;2024-03-02T22:02:51;5.47;;;2.20;;
17177;SDS011;8704;52.006;4.374;2024-03-02T22:05:24;4.00;;;2.08;;
17177;SDS011;8704;52.006;4.374;2024-03-02T22:07:52;3.83;;;2.53;;
17177;SDS011;8704;52.006;4.374;2024-03-02T22:10:21;4.50;;;2.20;;
17177;SDS011;8704;52.006;4.374;2024-03-02T22:12:49;3.22;;;2.20;;
17177;SDS011;8704;52.006;4.374;2024-03-02T22:15:18;4.68;;;2.00;;
17177;SDS011;8704;52.006;4.374;2024-03-02T22:17:46;3.60;;;2.10;;
17177;SDS011;8704;52.006;4.374;2024-03-02T22:20:16;3.33;;;2.30;;
17177;SDS011;8704;52.006;4.374;2024-03-02T22:22:44;3.83;;;2.20;;
17177;SDS011;8704;52.006;4.374;2024-03-02T22:25:13;4.35;;;1.92;;
17177;SDS011;8704;52.006;4.374;2024-03-02T22:27:41;2.92;;;2.03;;
17177;SDS011;8704;52.006;4.374;2024-03-02T22:30:10;4.78;;;2.40;;
17177;SDS011;8704;52.006;4.374;2024-03-02T22:32:38;3.10;;;2.00;;
17177;SDS011;8704;52.006;4.374;2024-03-02T22:35:07;4.05;;;1.85;;
17177;SDS011;8704;52.006;4.374;2024-03-02T22:37:37;2.35;;;1.52;;
17177;SDS011;8704;52.006;4.374;2024-03-02T22:40:06;2.80;;;2.00;;
17177;SDS011;8704;52.006;4.374;2024-03-02T22:42:34;3.00;;;2.17;;
17177;SDS011;8704;52.006;4.374;2024-03-02T22:45:03;3.88;;;2.83;;
17177;SDS011;8704;52.006;4.374;2024-03-02T22:47:31;4.40;;;2.13;;
17177;SDS011;8704;52.006;4.374;2024-03-02T22:50:00;3.63;;;2.38;;
17177;SDS011;8704;52.006;4.374;2024-03-02T22:52:29;3.85;;;2.10;;
17177;SDS011;8704;52.006;4.374;2024-03-02T22:54:58;4.20;;;2.30;;
17177;SDS011;8704;52.006;4.374;2024-03-02T22:57:27;3.05;;;2.08;;
17177;SDS011;8704;52.006;4.374;2024-03-02T22:59:55;2.75;;;2.00;;
17177;SDS011;8704;52.006;4.374;2024-03-02T23:02:23;4.32;;;1.98;;
17177;SDS011;8704;52.006;4.374;2024-03-02T23:04:52;3.15;;;1.98;;
17177;SDS011;8704;52.006;4.374;2024-03-02T23:07:20;3.67;;;2.28;;
17177;SDS011;8704;52.006;4.374;2024-03-02T23:09:49;3.45;;;2.13;;
17177;SDS011;8704;52.006;4.374;2024-03-02T23:12:19;3.42;;;2.00;;
17177;SDS011;8704;52.006;4.374;2024-03-02T23:14:47;3.55;;;2.30;;
17177;SDS011;8704;52.006;4.374;2024-03-02T23:17:15;4.38;;;1.90;;
17177;SDS011;8704;52.006;4.374;2024-03-02T23:19:44;3.30;;;2.20;;
17177;SDS011;8704;52.006;4.374;2024-03-02T23:22:12;3.90;;;2.25;;
17177;SDS011;8704;52.006;4.374;2024-03-02T23:24:41;2.85;;;1.75;;
17177;SDS011;8704;52.006;4.374;2024-03-02T23:27:09;3.30;;;1.80;;
17177;SDS011;8704;52.006;4.374;2024-03-02T23:29:39;3.72;;;2.08;;
17177;SDS011;8704;52.006;4.374;2024-03-02T23:32:07;4.00;;;2.05;;
17177;SDS011;8704;52.006;4.374;2024-03-02T23:34:35;3.28;;;1.90;;
17177;SDS011;8704;52.006;4.374;2024-03-02T23:37:04;3.10;;;1.90;;
17177;SDS011;8704;52.006;4.374;2024-03-02T23:39:34;3.45;;;2.03;;
17177;SDS011;8704;52.006;4.374;2024-03-02T23:42:16;3.10;;;1.88;;
17177;SDS011;8704;52.006;4.374;2024-03-02T23:44:46;4.07;;;1.90;;
17177;SDS011;8704;52.006;4.374;2024-03-02T23:47:14;2.63;;;1.67;;
17177;SDS011;8704;52.006;4.374;2024-03-02T23:49:43;2.92;;;1.80;;
17177;SDS011;8704;52.006;4.374;2024-03-02T23:52:11;2.95;;;2.00;;
17177;SDS011;8704;52.006;4.374;2024-03-02T23:54:40;3.28;;;1.80;;
17177;SDS011;8704;52.006;4.374;2024-03-02T23:57:08;3.70;;;1.60;;
17177;SDS011;8704;52.006;4.374;2024-03-02T23:59:37;2.83;;;1.73;;
